Time;durP1;ratioP1;P1;durP2;ratioP2;P2;SDS_P1;SDS_P2;PMS_P1;PMS_P2;Temp;Humidity;BMP_temperature;BMP_pressure;BME280_temperature;BME280_humidity;BME280_pressure;Samples;Min_cycle;Max_cycle;Signal;HPM_P1;HPM_P2
2023/04/19 00:01:27;;;;;;;4.40;2.33;;;7.70;99.90;;;;;;5050982;28;20055;-77
2023/04/19 00:03:54;;;;;;;3.72;2.35;;;7.80;99.90;;;;;;5051006;28;20068;-78
2023/04/19 00:06:20;;;;;;;4.05;2.60;;;7.70;1.00;;;;;;5051045;28;20052;-78
2023/04/19 00:08:46;;;;;;;4.95;2.67;;;7.60;99.90;;;;;;5034355;28;20480;-78
2023/04/19 00:11:11;;;;;;;5.88;2.80;;;7.60;99.90;;;;;;5050774;28;20091;-78
2023/04/19 00:13:37;;;;;;;3.90;2.13;;;7.60;62.70;;;;;;5034210;28;20429;-78
2023/04/19 00:16:03;;;;;;;4.38;2.78;;;7.60;99.90;;;;;;5050771;28;20104;-78
2023/04/19 00:18:28;;;;;;;5.28;2.63;;;7.60;99.90;;;;;;5050998;28;20044;-78
2023/04/19 00:20:55;;;;;;;6.25;2.63;;;7.60;99.90;;;;;;5050823;28;20056;-78
2023/04/19 00:23:21;;;;;;;5.28;2.33;;;7.50;99.90;;;;;;5034443;28;20554;-78
2023/04/19 00:25:48;;;;;;;3.45;2.13;;;7.50;1.00;;;;;;5050603;28;20041;-78
2023/04/19 00:28:13;;;;;;;4.50;2.38;;;7.60;1.00;;;;;;5050980;28;20045;-78
2023/04/19 00:30:39;;;;;;;5.45;2.25;;;7.50;99.90;;;;;;5034182;28;20044;-78
2023/04/19 00:33:11;;;;;;;5.13;2.50;;;7.50;1.00;;;;;;5050637;28;20055;-78
2023/04/19 00:35:37;;;;;;;4.28;2.30;;;7.60;99.90;;;;;;5050767;28;20044;-78
2023/04/19 00:38:03;;;;;;;5.47;2.50;;;7.60;99.90;;;;;;5050677;28;20086;-77
2023/04/19 00:40:30;;;;;;;4.13;2.28;;;7.50;99.90;;;;;;5034147;28;20072;-77
2023/04/19 00:42:56;;;;;;;4.28;2.65;;;7.50;99.90;;;;;;5017592;28;20123;-78
2023/04/19 00:45:21;;;;;;;4.97;2.90;;;7.50;99.90;;;;;;5050895;28;20076;-78
2023/04/19 00:47:47;;;;;;;5.53;2.72;;;7.50;1.00;;;;;;5036075;28;20040;-78
2023/04/19 00:50:13;;;;;;;7.65;2.83;;;7.50;99.90;;;;;;5038461;28;20500;-78
2023/04/19 00:52:39;;;;;;;3.85;2.28;;;7.40;99.90;;;;;;5054504;28;20037;-78
2023/04/19 00:55:05;;;;;;;4.38;2.63;;;7.40;99.90;;;;;;5054574;28;20194;-78
2023/04/19 00:57:31;;;;;;;4.72;2.55;;;7.40;99.90;;;;;;5054759;28;20076;-79
2023/04/19 00:59:57;;;;;;;3.70;2.25;;;7.30;99.90;;;;;;5054282;28;20186;-77
2023/04/19 01:02:23;;;;;;;4.35;2.55;;;7.20;1.00;;;;;;5037755;28;20044;-78
2023/04/19 01:04:49;;;;;;;4.03;2.70;;;7.20;99.90;;;;;;5037607;28;20557;-78
2023/04/19 01:07:14;;;;;;;4.75;2.90;;;7.10;99.90;;;;;;5054436;28;20408;-78
2023/04/19 01:09:42;;;;;;;6.32;2.72;;;7.10;1.00;;;;;;5054046;28;20086;-78
2023/04/19 01:12:08;;;;;;;5.85;3.30;;;7.10;99.90;;;;;;5054296;28;20495;-78
2023/04/19 01:14:34;;;;;;;5.20;2.72;;;7.80;99.90;;;;;;5054677;28;20041;-78
2023/04/19 01:16:59;;;;;;;7.00;2.78;;;7.00;99.90;;;;;;5054059;28;20045;-77
2023/04/19 01:19:26;;;;;;;5.55;2.47;;;7.00;99.90;;;;;;5054429;28;20156;-78
2023/04/19 01:21:51;;;;;;;4.65;2.83;;;7.00;99.90;;;;;;5037800;28;20084;-78
2023/04/19 01:24:17;;;;;;;6.38;2.80;;;7.00;99.90;;;;;;5053864;28;20041;-77
2023/04/19 01:26:43;;;;;;;5.80;3.30;;;7.80;99.00;;;;;;5037278;28;20543;-78
2023/04/19 01:29:08;;;;;;;6.72;2.88;;;6.90;99.90;;;;;;5053721;28;20131;-78
2023/04/19 01:31:34;;;;;;;7.15;3.47;;;6.90;99.90;;;;;;5053788;28;20489;-77
2023/04/19 01:34:00;;;;;;;5.68;3.10;;;6.90;99.90;;;;;;5053763;28;20041;-78
2023/04/19 01:36:26;;;;;;;4.90;3.05;;;6.90;99.90;;;;;;5037641;28;20045;-78
2023/04/19 01:38:52;;;;;;;6.00;2.95;;;6.90;75.60;;;;;;5036837;28;20037;-77
2023/04/19 01:41:19;;;;;;;7.05;3.88;;;6.80;99.90;;;;;;5053811;28;20033;-77
2023/04/19 01:43:44;;;;;;;8.27;2.97;;;6.80;99.90;;;;;;5036898;28;20064;-76
2023/04/19 01:46:10;;;;;;;9.02;4.05;;;6.80;99.90;;;;;;5037501;28;20037;-77
2023/04/19 01:48:35;;;;;;;7.40;3.65;;;6.80;99.90;;;;;;5053340;28;20063;-77
2023/04/19 01:51:01;;;;;;;6.53;3.78;;;6.80;99.90;;;;;;5053372;28;20028;-78
2023/04/19 01:53:27;;;;;;;9.02;3.22;;;6.80;99.90;;;;;;5036757;28;20497;-77
2023/04/19 01:55:52;;;;;;;4.90;2.92;;;6.80;1.00;;;;;;5053299;28;20044;-77
2023/04/19 01:58:18;;;;;;;9.45;4.07;;;6.80;99.90;;;;;;5036105;28;20052;-76
2023/04/19 02:00:43;;;;;;;10.15;3.78;;;6.80;99.90;;;;;;5053181;28;20566;-77
2023/04/19 02:03:09;;;;;;;6.32;3.80;;;6.70;1.00;;;;;;5036921;28;20081;-78
2023/04/19 02:05:34;;;;;;;8.20;4.45;;;8.50;1.00;;;;;;5052780;28;20056;-77
2023/04/19 02:08:00;;;;;;;8.30;3.78;;;6.70;1.00;;;;;;5052946;28;20041;-78
2023/04/19 02:10:26;;;;;;;9.27;4.10;;;6.70;99.90;;;;;;5053166;28;20485;-78
2023/04/19 02:12:52;;;;;;;9.30;4.03;;;6.70;99.90;;;;;;5053127;28;20053;-77
2023/04/19 02:15:17;;;;;;;7.10;3.95;;;6.60;1.00;;;;;;5052848;28;20048;-78
2023/04/19 02:17:45;;;;;;;8.23;3.72;;;6.60;1.00;;;;;;5036173;28;20047;-78
2023/04/19 02:20:11;;;;;;;6.07;3.40;;;6.60;1.00;;;;;;5036297;28;20028;-77
2023/04/19 02:22:36;;;;;;;8.02;4.05;;;6.60;99.90;;;;;;5052840;28;20516;-77
2023/04/19 02:25:03;;;;;;;12.25;4.40;;;6.60;1.00;;;;;;5036418;28;20040;-78
2023/04/19 02:27:28;;;;;;;10.05;4.53;;;6.60;99.90;;;;;;5052705;28;20116;-78
2023/04/19 02:29:55;;;;;;;6.72;3.72;;;6.50;99.90;;;;;;5036022;28;20524;-78
2023/04/19 02:32:20;;;;;;;5.88;3.72;;;6.50;99.90;;;;;;5052517;28;20416;-78
2023/04/19 02:34:46;;;;;;;8.52;4.47;;;6.50;99.90;;;;;;5036193;28;20036;-78
2023/04/19 02:37:12;;;;;;;8.55;4.25;;;6.40;1.00;;;;;;5052603;28;20063;-78
2023/04/19 02:39:37;;;;;;;5.97;3.60;;;6.40;99.90;;;;;;5052443;28;20405;-78
2023/04/19 02:42:04;;;;;;;7.53;3.70;;;6.40;99.90;;;;;;5052885;28;20041;-78
2023/04/19 02:44:30;;;;;;;8.13;3.90;;;6.40;1.00;;;;;;5036007;28;20051;-78
2023/04/19 02:46:56;;;;;;;7.03;3.50;;;6.30;99.90;;;;;;5052139;28;20052;-77
2023/04/19 02:49:22;;;;;;;6.28;3.90;;;6.30;99.90;;;;;;5035964;28;20104;-78
2023/04/19 02:51:50;;;;;;;8.27;3.85;;;6.30;99.90;;;;;;5052697;28;20127;-78
2023/04/19 02:54:16;;;;;;;10.50;4.13;;;6.30;99.90;;;;;;5052117;28;20048;-77
2023/04/19 02:56:41;;;;;;;6.25;3.60;;;6.20;99.90;;;;;;5036121;28;20032;-77
2023/04/19 02:59:07;;;;;;;8.15;4.00;;;6.20;62.10;;;;;;5052634;28;20033;-78
2023/04/19 03:01:32;;;;;;;8.45;3.35;;;6.20;1.00;;;;;;5052257;28;20484;-78
2023/04/19 03:03:58;;;;;;;5.53;3.50;;;6.20;1.00;;;;;;5051918;28;20107;-78
2023/04/19 03:06:25;;;;;;;6.82;3.78;;;6.10;63.00;;;;;;5051835;28;20044;-78
2023/04/19 03:08:50;;;;;;;10.88;3.42;;;6.10;1.00;;;;;;5052059;28;20052;-77
2023/04/19 03:11:16;;;;;;;6.90;3.30;;;6.10;99.90;;;;;;5034135;28;20051;-78
2023/04/19 03:13:42;;;;;;;5.53;3.00;;;6.10;99.90;;;;;;5035203;28;20037;-78
2023/04/19 03:16:08;;;;;;;6.10;2.67;;;6.10;99.90;;;;;;5052116;28;20037;-78
2023/04/19 03:18:35;;;;;;;7.97;3.55;;;6.00;99.90;;;;;;5051996;28;20037;-78
2023/04/19 03:21:01;;;;;;;6.65;3.15;;;6.90;99.90;;;;;;5051713;28;20489;-78
2023/04/19 03:23:27;;;;;;;5.35;3.10;;;5.90;69.30;;;;;;5051796;28;20424;-77
2023/04/19 03:25:52;;;;;;;6.03;2.88;;;6.20;92.20;;;;;;5051649;28;20055;-77
2023/04/19 03:28:19;;;;;;;5.97;3.13;;;5.90;1.00;;;;;;5051904;28;20511;-77
2023/04/19 03:30:45;;;;;;;4.75;2.35;;;5.80;63.70;;;;;;5051612;28;20045;-78
2023/04/19 03:33:10;;;;;;;9.98;3.50;;;5.80;1.00;;;;;;5034692;28;20037;-77
2023/04/19 03:35:36;;;;;;;5.05;3.13;;;5.80;9.30;;;;;;5051557;28;20416;-78
2023/04/19 03:38:01;;;;;;;7.70;2.67;;;5.70;1.00;;;;;;5051516;28;20044;-79
2023/04/19 03:40:28;;;;;;;5.80;3.20;;;5.70;1.00;;;;;;5035185;28;20485;-79
2023/04/19 03:42:54;;;;;;;6.22;3.00;;;5.70;1.00;;;;;;5051868;28;20045;-79
2023/04/19 03:45:19;;;;;;;8.18;3.38;;;5.70;1.00;;;;;;5051362;28;20044;-79
2023/04/19 03:47:45;;;;;;;4.50;3.08;;;5.60;1.00;;;;;;5051242;28;20067;-78
2023/04/19 03:50:10;;;;;;;6.10;3.28;;;5.60;1.00;;;;;;5051533;28;20515;-78
2023/04/19 03:52:37;;;;;;;6.45;2.72;;;5.50;1.00;;;;;;5051147;28;20040;-79
2023/04/19 03:55:03;;;;;;;3.95;2.63;;;5.50;1.00;;;;;;5034581;28;20043;-78
2023/04/19 03:57:28;;;;;;;5.20;3.15;;;5.40;1.00;;;;;;5051252;28;20124;-78
2023/04/19 03:59:54;;;;;;;6.85;2.75;;;5.40;1.00;;;;;;5051182;28;20044;-78
2023/04/19 04:02:19;;;;;;;5.10;2.75;;;5.30;1.00;;;;;;5051767;28;20048;-78
2023/04/19 04:04:45;;;;;;;5.30;3.00;;;5.30;99.90;;;;;;5051121;28;20061;-78
2023/04/19 04:07:10;;;;;;;6.60;3.45;;;5.20;78.00;;;;;;5051278;28;20052;-78
2023/04/19 04:09:36;;;;;;;6.00;3.10;;;5.20;61.70;;;;;;5034580;28;20087;-78
2023/04/19 04:12:02;;;;;;;5.28;2.88;;;5.20;99.90;;;;;;5034438;28;20401;-78
2023/04/19 04:14:27;;;;;;;6.50;3.03;;;5.10;99.90;;;;;;5052144;28;20037;-78
2023/04/19 04:16:53;;;;;;;4.70;3.17;;;5.20;99.90;;;;;;5034481;28;20029;-79
2023/04/19 04:19:20;;;;;;;4.90;3.03;;;5.10;64.60;;;;;;5034767;28;20166;-78
2023/04/19 04:21:46;;;;;;;8.02;3.50;;;5.10;1.00;;;;;;5033972;28;20136;-78
2023/04/19 04:24:12;;;;;;;8.00;2.72;;;5.10;1.00;;;;;;5034223;28;20128;-78
2023/04/19 04:26:38;;;;;;;5.00;3.08;;;5.10;13.50;;;;;;5050768;28;20079;-78
2023/04/19 04:29:04;;;;;;;5.95;3.25;;;5.10;1.00;;;;;;5034250;28;20458;-76
2023/04/19 04:31:30;;;;;;;4.32;2.78;;;5.00;1.00;;;;;;5050790;28;20083;-82
2023/04/19 04:33:56;;;;;;;5.32;2.95;;;5.00;1.00;;;;;;5052654;28;20125;-79
2023/04/19 04:36:22;;;;;;;4.82;2.42;;;5.00;1.00;;;;;;5053722;28;20513;-76
2023/04/19 04:38:48;;;;;;;4.53;2.78;;;5.00;99.90;;;;;;5051575;28;20036;-76
2023/04/19 04:41:13;;;;;;;5.13;2.55;;;5.00;99.90;;;;;;5051936;28;20409;-77
2023/04/19 04:43:39;;;;;;;8.23;2.75;;;5.00;99.90;;;;;;5035833;28;20105;-79
2023/04/19 04:46:05;;;;;;;4.55;2.67;;;5.00;99.90;;;;;;5051454;28;20041;-78
2023/04/19 04:48:30;;;;;;;5.63;2.60;;;4.90;99.90;;;;;;5052184;28;20041;-78
2023/04/19 04:50:56;;;;;;;4.35;2.50;;;5.00;99.90;;;;;;5051754;28;20052;-77
2023/04/19 04:53:25;;;;;;;5.05;2.58;;;5.00;99.90;;;;;;5035469;28;20408;-78
2023/04/19 04:55:52;;;;;;;4.93;2.50;;;5.00;99.90;;;;;;5034799;28;20069;-78
2023/04/19 04:58:18;;;;;;;5.22;2.78;;;4.90;99.90;;;;;;5051197;28;20037;-77
2023/04/19 05:00:44;;;;;;;8.55;2.65;;;5.00;99.90;;;;;;5051525;28;20386;-79
2023/04/19 05:03:10;;;;;;;5.25;2.72;;;5.00;99.90;;;;;;5034961;28;20127;-78
2023/04/19 05:05:35;;;;;;;4.53;2.22;;;5.00;99.90;;;;;;5034911;28;20056;-77
2023/04/19 05:08:02;;;;;;;5.22;2.42;;;5.00;99.90;;;;;;5035301;28;20041;-78
2023/04/19 05:10:28;;;;;;;7.57;2.92;;;5.10;99.90;;;;;;5051776;28;20519;-77
2023/04/19 05:12:54;;;;;;;5.00;2.75;;;5.10;99.90;;;;;;5051328;28;20049;-77
2023/04/19 05:15:19;;;;;;;5.28;2.38;;;5.10;99.90;;;;;;5034734;28;20123;-77
2023/04/19 05:17:45;;;;;;;4.28;2.50;;;5.20;96.50;;;;;;5051672;28;20477;-78
2023/04/19 05:20:11;;;;;;;4.72;2.55;;;5.20;23.40;;;;;;5051697;28;20037;-78
2023/04/19 05:22:37;;;;;;;5.13;2.55;;;5.20;1.00;;;;;;5051598;28;20037;-78
2023/04/19 05:25:03;;;;;;;4.55;2.58;;;5.30;1.00;;;;;;5034649;28;20036;-77
2023/04/19 05:27:28;;;;;;;4.78;2.67;;;5.30;1.00;;;;;;5052093;28;20059;-78
2023/04/19 05:29:54;;;;;;;3.20;1.98;;;5.40;1.00;;;;;;5051762;28;20076;-78
2023/04/19 05:32:20;;;;;;;7.25;2.38;;;5.50;1.00;;;;;;5035268;28;20049;-78
2023/04/19 05:34:45;;;;;;;4.22;2.58;;;5.60;99.90;;;;;;5036847;28;20040;-78
2023/04/19 05:37:11;;;;;;;4.68;2.35;;;5.60;99.90;;;;;;5038704;28;20041;-78
2023/04/19 05:39:36;;;;;;;4.10;2.38;;;5.70;99.90;;;;;;5038179;28;20047;-82
2023/04/19 05:42:02;;;;;;;3.78;2.28;;;5.80;99.90;;;;;;5054648;28;20048;-78
2023/04/19 05:44:28;;;;;;;3.95;2.30;;;5.90;99.90;;;;;;5038339;28;20036;-78
2023/04/19 05:46:53;;;;;;;5.90;2.65;;;5.90;99.90;;;;;;5054977;28;20408;-78
2023/04/19 05:49:19;;;;;;;4.78;1.95;;;6.00;99.90;;;;;;5055375;28;20165;-80
2023/04/19 05:51:45;;;;;;;5.25;2.63;;;6.10;99.90;;;;;;5055366;28;20041;-78
2023/04/19 05:54:12;;;;;;;5.38;2.05;;;6.20;99.90;;;;;;5038223;28;20037;-80
2023/04/19 05:56:38;;;;;;;9.93;2.58;;;6.50;99.90;;;;;;5056795;28;20057;-79
2023/04/19 05:59:07;;;;;;;3.80;2.22;;;6.30;99.90;;;;;;5040206;28;20043;-78
2023/04/19 06:01:34;;;;;;;5.63;2.30;;;6.40;99.90;;;;;;5056649;28;20068;-77
2023/04/19 06:03:59;;;;;;;3.17;1.80;;;6.40;99.90;;;;;;5053713;28;20424;-78
2023/04/19 06:06:26;;;;;;;4.07;2.13;;;6.50;99.90;;;;;;5054102;28;20045;-78
2023/04/19 06:08:51;;;;;;;3.85;2.15;;;7.00;99.90;;;;;;5053842;28;20044;-77
2023/04/19 06:11:17;;;;;;;4.80;2.65;;;6.60;99.90;;;;;;5037485;28;20396;-77
2023/04/19 06:13:43;;;;;;;3.30;2.08;;;6.60;99.90;;;;;;5053646;28;20223;-77
2023/04/19 06:16:09;;;;;;;3.47;1.85;;;6.70;99.90;;;;;;5053606;28;20047;-77
2023/04/19 06:18:36;;;;;;;4.30;2.15;;;6.80;99.90;;;;;;5053670;28;20045;-78
2023/04/19 06:21:01;;;;;;;2.95;1.60;;;6.90;99.90;;;;;;5053801;28;20056;-76
2023/04/19 06:23:27;;;;;;;3.95;2.13;;;7.00;99.90;;;;;;5053586;28;20048;-77
2023/04/19 06:25:53;;;;;;;3.45;1.70;;;7.10;99.90;;;;;;5053986;28;20040;-79
2023/04/19 06:28:18;;;;;;;2.40;1.75;;;7.60;99.90;;;;;;5054010;28;20048;-77
2023/04/19 06:30:44;;;;;;;5.28;3.55;;;7.40;99.90;;;;;;5037140;28;20090;-78
2023/04/19 06:33:10;;;;;;;3.38;1.92;;;7.50;99.90;;;;;;5053942;28;20084;-78
2023/04/19 06:35:36;;;;;;;5.60;2.40;;;7.50;99.90;;;;;;5053305;28;20051;-76
2023/04/19 06:38:02;;;;;;;2.50;1.40;;;7.60;99.90;;;;;;5053178;28;20060;-77
2023/04/19 06:40:30;;;;;;;3.80;1.83;;;7.70;99.90;;;;;;5053570;28;20041;-77
2023/04/19 06:42:56;;;;;;;4.60;2.65;;;7.80;99.90;;;;;;5053113;28;20098;-78
2023/04/19 06:45:22;;;;;;;2.67;1.60;;;8.00;99.90;;;;;;5052841;28;20496;-77
2023/04/19 06:47:47;;;;;;;3.63;1.88;;;8.00;99.90;;;;;;5053107;28;20069;-77
2023/04/19 06:50:13;;;;;;;4.97;1.75;;;8.10;99.90;;;;;;5053185;28;20040;-77
2023/04/19 06:52:38;;;;;;;4.97;2.25;;;8.10;99.90;;;;;;5052906;28;20033;-77
2023/04/19 06:55:08;;;;;;;3.40;1.60;;;8.20;99.90;;;;;;5036646;28;20435;-77
2023/04/19 06:57:34;;;;;;;3.22;1.58;;;8.80;99.40;;;;;;5052919;28;20495;-78
2023/04/19 07:00:00;;;;;;;3.15;1.73;;;8.90;99.90;;;;;;5052782;28;20155;-76
2023/04/19 07:02:25;;;;;;;3.35;1.52;;;8.70;99.90;;;;;;5052643;28;20102;-78
2023/04/19 07:04:51;;;;;;;4.60;1.40;;;8.80;99.90;;;;;;5052579;28;20099;-75
2023/04/19 07:07:16;;;;;;;3.63;1.83;;;8.80;98.70;;;;;;5053007;28;20548;-77
2023/04/19 07:09:42;;;;;;;3.92;1.73;;;8.90;99.00;;;;;;5052875;28;20091;-77
2023/04/19 07:12:08;;;;;;;2.38;1.30;;;9.10;99.60;;;;;;5036213;28;20496;-77
2023/04/19 07:14:33;;;;;;;2.67;1.27;;;9.70;99.90;;;;;;5052500;28;20037;-77
2023/04/19 07:17:02;;;;;;;2.20;1.40;;;9.30;95.80;;;;;;5052655;28;20133;-77
2023/04/19 07:19:28;;;;;;;2.65;1.58;;;9.40;94.70;;;;;;5052576;28;20459;-76
2023/04/19 07:21:53;;;;;;;4.13;1.70;;;9.80;79.40;;;;;;5035952;28;20087;-77
2023/04/19 07:24:19;;;;;;;2.67;1.30;;;11.60;83.90;;;;;;5035879;28;20037;-78
2023/04/19 07:26:45;;;;;;;2.33;1.10;;;9.70;83.50;;;;;;5052364;28;20044;-78
2023/04/19 07:29:10;;;;;;;1.90;1.38;;;9.80;81.70;;;;;;5035771;28;20041;-77
2023/04/19 07:31:36;;;;;;;1.70;0.90;;;9.90;85.30;;;;;;5052055;28;20056;-77
2023/04/19 07:34:02;;;;;;;2.88;1.27;;;9.90;81.10;;;;;;5052365;28;20432;-77
2023/04/19 07:36:27;;;;;;;4.10;1.27;;;10.10;82.00;;;;;;5052487;28;20426;-77
2023/04/19 07:38:53;;;;;;;2.83;1.58;;;10.20;76.80;;;;;;5035873;28;20044;-76
2023/04/19 07:41:19;;;;;;;2.72;1.40;;;10.30;80.20;;;;;;5052149;28;20068;-78
2023/04/19 07:43:44;;;;;;;2.72;1.27;;;10.30;77.40;;;;;;5035604;28;20049;-77
2023/04/19 07:46:12;;;;;;;2.40;1.45;;;11.90;75.80;;;;;;5052328;28;20040;-77
2023/04/19 07:48:38;;;;;;;1.90;1.10;;;10.40;70.80;;;;;;5035241;28;20408;-77
2023/04/19 07:51:23;;;;;;;2.40;1.40;;;10.40;70.10;;;;;;5035345;28;20041;-76
2023/04/19 07:53:49;;;;;;;2.78;1.67;;;10.30;58.30;;;;;;5051863;28;20425;-76
2023/04/19 07:56:15;;;;;;;3.60;1.50;;;10.40;61.60;;;;;;5051779;28;20037;-76
2023/04/19 07:58:40;;;;;;;3.40;1.40;;;9.20;59.50;;;;;;5051789;28;20128;-77
2023/04/19 08:01:06;;;;;;;3.42;1.40;;;10.50;60.50;;;;;;5035439;28;20123;-77
2023/04/19 08:03:36;;;;;;;4.15;1.40;;;10.60;61.90;;;;;;5034979;28;20041;-76
2023/04/19 08:06:04;;;;;;;1.67;1.10;;;10.70;59.20;;;;;;5018856;28;20413;-77
2023/04/19 08:08:30;;;;;;;2.17;1.30;;;10.80;58.90;;;;;;5035004;28;20068;-77
2023/04/19 08:10:56;;;;;;;3.88;1.20;;;11.90;57.20;;;;;;5035250;28;20106;-76
2023/04/19 08:13:22;;;;;;;2.42;1.33;;;10.80;50.10;;;;;;5034966;28;20513;-76
2023/04/19 08:15:47;;;;;;;2.17;1.20;;;12.70;55.70;;;;;;5034990;28;20037;-76
2023/04/19 08:18:13;;;;;;;2.55;1.10;;;10.80;47.70;;;;;;5034925;28;20037;-76
2023/04/19 08:20:41;;;;;;;4.47;1.35;;;10.90;49.00;;;;;;5034935;28;20037;-77
2023/04/19 08:23:07;;;;;;;1.75;1.10;;;12.10;49.90;;;;;;5035297;28;20041;-77
2023/04/19 08:25:34;;;;;;;1.77;1.25;;;11.10;51.30;;;;;;5034808;28;20071;-76
2023/04/19 08:28:00;;;;;;;3.60;2.28;;;11.30;52.80;;;;;;5018391;28;20044;-75
2023/04/19 08:30:26;;;;;;;2.33;1.08;;;11.40;48.00;;;;;;5035048;28;20473;-77
2023/04/19 08:32:51;;;;;;;2.13;1.20;;;11.50;52.30;;;;;;5018353;28;20036;-75
2023/04/19 08:35:17;;;;;;;2.40;0.93;;;11.60;46.80;;;;;;5034817;28;20048;-77
2023/04/19 08:37:42;;;;;;;2.08;1.10;;;11.70;51.00;;;;;;5034679;28;20087;-75
2023/04/19 08:40:10;;;;;;;1.50;0.90;;;12.10;44.40;;;;;;5034813;28;20060;-76
2023/04/19 08:42:35;;;;;;;2.05;1.17;;;11.70;45.80;;;;;;5034644;28;20056;-77
2023/04/19 08:45:05;;;;;;;2.08;1.10;;;11.80;46.20;;;;;;5034908;28;20040;-77
2023/04/19 08:47:34;;;;;;;1.42;1.00;;;11.90;44.80;;;;;;5035131;28;20131;-76
2023/04/19 08:50:02;;;;;;;1.45;0.85;;;12.50;43.60;;;;;;5034527;28;20045;-76
2023/04/19 08:52:29;;;;;;;1.38;1.00;;;12.00;43.00;;;;;;5034485;28;20045;-75
2023/04/19 08:54:55;;;;;;;1.50;0.90;;;12.90;45.00;;;;;;5018515;28;20400;-77
2023/04/19 08:57:20;;;;;;;1.50;0.88;;;11.70;55.20;;;;;;5036800;28;20037;-77
2023/04/19 08:59:50;;;;;;;2.05;1.00;;;12.30;44.50;;;;;;5034555;28;20404;-77
2023/04/19 09:02:16;;;;;;;1.50;1.00;;;12.30;42.70;;;;;;5035024;28;20060;-79
2023/04/19 09:04:42;;;;;;;1.83;0.82;;;12.30;44.10;;;;;;5026137;28;20523;-77
2023/04/19 09:07:07;;;;;;;1.92;1.17;;;12.00;43.80;;;;;;5051127;28;20128;-76
2023/04/19 09:09:34;;;;;;;1.25;0.88;;;12.00;43.00;;;;;;5037642;28;20045;-77
2023/04/19 09:12:00;;;;;;;2.15;0.95;;;12.20;46.80;;;;;;5055109;28;20610;-76
2023/04/19 09:14:27;;;;;;;1.33;1.02;;;12.10;50.20;;;;;;5038437;28;20033;-76
2023/04/19 09:16:53;;;;;;;1.85;1.00;;;12.10;44.80;;;;;;5054711;28;20462;-77
2023/04/19 09:19:19;;;;;;;4.25;1.50;;;12.00;46.10;;;;;;5054707;28;20124;-77
2023/04/19 09:21:45;;;;;;;1.70;1.02;;;12.20;48.60;;;;;;5054876;28;20488;-78
2023/04/19 09:24:11;;;;;;;3.08;1.25;;;12.30;51.40;;;;;;5038165;28;20044;-76
2023/04/19 09:26:37;;;;;;;3.53;1.30;;;12.50;56.50;;;;;;5037999;28;20446;-76
2023/04/19 09:29:05;;;;;;;1.73;1.05;;;13.50;85.10;;;;;;5054559;28;20069;-76
2023/04/19 09:31:32;;;;;;;1.40;1.20;;;;;;;;;;5054767;28;20481;-77
2023/04/19 09:34:18;;;;;;;1.00;0.60;;;12.90;27.80;;;;;;5038273;28;20040;-77
2023/04/19 09:36:44;;;;;;;1.08;0.70;;;12.90;34.50;;;;;;5037873;28;20056;-76
2023/04/19 09:39:10;;;;;;;1.65;1.23;;;12.90;47.50;;;;;;5054379;28;20401;-77
2023/04/19 09:41:52;;;;;;;1.80;0.80;;;13.00;35.40;;;;;;5021272;28;20403;-76
2023/04/19 09:44:19;;;;;;;1.63;0.88;;;13.00;31.00;;;;;;5054504;28;20025;-76
2023/04/19 09:46:47;;;;;;;1.65;1.05;;;13.10;31.70;;;;;;5054588;28;20048;-76
2023/04/19 09:49:16;;;;;;;1.15;1.00;;;13.20;29.80;;;;;;5037828;28;20094;-76
2023/04/19 09:51:48;;;;;;;3.47;1.20;;;13.10;28.70;;;;;;5037509;28;20045;-76
2023/04/19 09:54:16;;;;;;;1.95;1.00;;;13.20;28.20;;;;;;5037687;28;20095;-77
2023/04/19 09:56:42;;;;;;;1.30;1.00;;;13.30;29.40;;;;;;5054026;28;20140;-76
2023/04/19 09:59:11;;;;;;;1.23;0.68;;;13.40;30.60;;;;;;5054190;28;20044;-75
2023/04/19 10:01:42;;;;;;;1.40;0.88;;;13.40;29.80;;;;;;5054167;28;20041;-76
2023/04/19 10:04:20;;;;;;;2.58;1.05;;;13.40;28.40;;;;;;5037960;28;20060;-76
2023/04/19 10:06:50;;;;;;;1.92;1.17;;;14.50;29.20;;;;;;5055051;28;20049;-76
2023/04/19 10:09:24;;;;;;;2.00;1.00;;;13.60;29.90;;;;;;5054249;28;20120;-77
2023/04/19 10:11:52;;;;;;;2.63;1.10;;;13.80;32.10;;;;;;5055498;28;20045;-76
2023/04/19 10:14:23;;;;;;;2.00;1.00;;;13.80;32.20;;;;;;5054608;28;20037;-76
2023/04/19 10:16:50;;;;;;;0.93;0.65;;;13.90;30.90;;;;;;5037741;28;20044;-76
2023/04/19 10:19:18;;;;;;;1.50;0.90;;;13.90;31.60;;;;;;5053618;28;20041;-77
2023/04/19 10:21:46;;;;;;;0.88;0.80;;;14.00;32.50;;;;;;5053909;28;20033;-75
2023/04/19 10:24:13;;;;;;;1.35;0.80;;;13.90;31.60;;;;;;5054328;28;20033;-76
2023/04/19 10:27:06;;;;;;;1.60;0.80;;;13.80;28.40;;;;;;5054923;28;20037;-76
2023/04/19 10:29:50;;;;;;;1.02;0.75;;;14.00;29.30;;;;;;5039040;28;20045;-76
2023/04/19 10:32:16;;;;;;;1.13;0.85;;;13.90;27.90;;;;;;5054776;28;20450;-76
2023/04/19 10:34:44;;;;;;;2.00;1.00;;;14.80;28.20;;;;;;5038018;28;20064;-75
2023/04/19 10:37:10;;;;;;;0.98;0.70;;;15.60;28.00;;;;;;5054128;28;20037;-76
2023/04/19 10:39:43;;;;;;;1.70;0.80;;;13.90;27.30;;;;;;5053477;28;20536;-76
2023/04/19 10:42:09;;;;;;;1.65;1.00;;;15.20;40.00;;;;;;5053333;28;20139;-76
2023/04/19 10:44:35;;;;;;;0.50;0.50;;;14.10;28.00;;;;;;5037024;28;20037;-77
2023/04/19 10:47:01;;;;;;;1.10;0.70;;;14.20;29.80;;;;;;5036499;28;20037;-75
2023/04/19 10:49:30;;;;;;;1.88;0.55;;;14.50;28.00;;;;;;5052908;28;20562;-76
2023/04/19 10:51:58;;;;;;;1.27;0.80;;;14.20;27.40;;;;;;5036394;28;20072;-76
2023/04/19 10:54:30;;;;;;;1.67;0.73;;;14.80;27.60;;;;;;5052998;28;20055;-75
2023/04/19 10:57:04;;;;;;;0.98;0.70;;;14.20;26.80;;;;;;5052951;28;20044;-76
2023/04/19 10:59:32;;;;;;;1.52;0.60;;;14.30;29.10;;;;;;5052809;28;20029;-76
2023/04/19 11:02:00;;;;;;;2.22;0.82;;;14.50;28.10;;;;;;5052644;28;20408;-77
2023/04/19 11:04:29;;;;;;;1.85;0.80;;;14.30;28.90;;;;;;5052438;28;20452;-77
2023/04/19 11:06:55;;;;;;;1.50;0.82;;;14.30;29.70;;;;;;5052835;28;20059;-77
2023/04/19 11:09:33;;;;;;;2.58;0.63;;;14.30;28.80;;;;;;5036082;28;20540;-77
2023/04/19 11:12:03;;;;;;;0.85;0.65;;;14.20;28.20;;;;;;5052386;28;20532;-78
2023/04/19 11:14:35;;;;;;;1.10;0.60;;;14.20;27.90;;;;;;5053059;28;20055;-76
2023/04/19 11:17:12;;;;;;;1.20;0.80;;;14.80;27.40;;;;;;5036041;28;20048;-76
2023/04/19 11:19:38;;;;;;;3.22;0.95;;;14.30;29.00;;;;;;5052406;28;20094;-76
2023/04/19 11:22:03;;;;;;;1.33;0.70;;;14.30;27.80;;;;;;5052331;28;20040;-77
2023/04/19 11:24:29;;;;;;;1.33;0.60;;;14.20;28.40;;;;;;5035833;28;20560;-78
2023/04/19 11:26:56;;;;;;;1.42;0.80;;;14.30;29.30;;;;;;5052210;28;20045;-77
2023/04/19 11:29:22;;;;;;;1.25;0.75;;;14.30;27.20;;;;;;5035811;28;20045;-78
2023/04/19 11:31:47;;;;;;;2.35;0.95;;;14.30;26.80;;;;;;5051144;28;20550;-76
2023/04/19 11:34:13;;;;;;;1.58;0.90;;;14.20;27.90;;;;;;5035835;28;20194;-77
2023/04/19 11:36:52;;;;;;;3.05;1.02;;;15.80;29.70;;;;;;5052074;28;20040;-77
2023/04/19 11:39:18;;;;;;;1.98;0.98;;;14.40;28.50;;;;;;5052030;28;20080;-77
2023/04/19 11:41:46;;;;;;;1.65;1.05;;;16.20;31.10;;;;;;5051938;28;20037;-77
2023/04/19 11:44:18;;;;;;;1.42;1.00;;;14.40;30.80;;;;;;5052337;28;20040;-77
2023/04/19 11:46:57;;;;;;;2.28;1.10;;;16.10;30.40;;;;;;5035182;28;20068;-77
2023/04/19 11:49:27;;;;;;;1.60;0.85;;;14.40;29.90;;;;;;5035544;28;20052;-77
2023/04/19 11:52:01;;;;;;;2.00;1.10;;;15.90;31.20;;;;;;5051985;28;20127;-77
2023/04/19 11:54:27;;;;;;;2.22;1.10;;;14.40;28.80;;;;;;5051730;28;20076;-78
2023/04/19 11:57:02;;;;;;;2.85;0.82;;;14.50;28.80;;;;;;5035198;28;20076;-77
2023/04/19 11:59:28;;;;;;;2.03;1.20;;;14.50;29.30;;;;;;5051689;28;20033;-78
2023/04/19 12:01:54;;;;;;;2.08;1.30;;;14.40;29.60;;;;;;5051665;28;20060;-76
2023/04/19 12:04:20;;;;;;;1.90;1.27;;;14.40;29.60;;;;;;5034948;28;20049;-76
2023/04/19 12:06:56;;;;;;;2.05;1.00;;;14.40;29.50;;;;;;5036252;28;20455;-78
2023/04/19 12:09:21;;;;;;;3.17;1.83;;;14.50;29.70;;;;;;5052790;28;20037;-83
2023/04/19 12:11:50;;;;;;;2.65;1.50;;;14.60;31.60;;;;;;5053672;28;20110;-82
2023/04/19 12:14:20;;;;;;;7.53;1.10;;;14.60;30.00;;;;;;5053658;28;20508;-81
2023/04/19 12:17:01;;;;;;;2.80;1.23;;;15.20;31.30;;;;;;5053831;28;20048;-82
2023/04/19 12:19:27;;;;;;;2.25;1.20;;;16.10;30.30;;;;;;5035666;28;20041;-80
2023/04/19 12:22:06;;;;;;;1.45;1.10;;;14.50;28.90;;;;;;5051713;28;20037;-77
2023/04/19 12:24:32;;;;;;;1.98;1.33;;;14.50;28.40;;;;;;5052229;28;20462;-76
2023/04/19 12:26:58;;;;;;;2.20;1.38;;;14.50;28.80;;;;;;5035659;28;20068;-83
2023/04/19 12:29:23;;;;;;;1.75;1.08;;;14.60;28.40;;;;;;5035704;28;20500;-78
2023/04/19 12:31:49;;;;;;;2.35;1.30;;;14.60;29.60;;;;;;5051515;28;20037;-76
2023/04/19 12:34:16;;;;;;;2.05;1.25;;;14.60;28.90;;;;;;5035526;28;20044;-83
2023/04/19 12:36:41;;;;;;;1.58;0.90;;;15.00;30.20;;;;;;5053598;28;20051;-82
2023/04/19 12:39:08;;;;;;;2.50;1.15;;;14.70;45.30;;;;;;5036133;28;20049;-81
2023/04/19 12:41:33;;;;;;;1.52;1.17;;;14.70;29.50;;;;;;5052438;28;20044;-81
2023/04/19 12:43:59;;;;;;;1.65;1.23;;;14.80;30.70;;;;;;5054114;28;20485;-81
2023/04/19 12:46:24;;;;;;;1.02;0.88;;;14.60;29.80;;;;;;5056925;28;20048;-81
2023/04/19 12:48:50;;;;;;;2.58;1.50;;;14.70;30.80;;;;;;5056224;28;20127;-80
2023/04/19 12:51:16;;;;;;;1.85;1.10;;;14.60;28.10;;;;;;5039654;28;20431;-79
2023/04/19 12:53:48;;;;;;;3.50;1.00;;;14.90;30.60;;;;;;5058369;28;20048;-80